Portada
METAR-TAF:

METAR-TAF

Aeroports :

Kwajalein, Illes Marshall

latitud: 08-43N, longitud: 167-44E, altitud: 3 m

Observació

L'informe es va fer fa 13 minuts, a les 08:40 UTC
Vent 3 kt del Est
Temperatura 28°C
Humitat 79%
Pressió 1011 hPa
Visibilitat: 16.1 km
Cel clar

METAR: PKWA 190840Z AUTO 08003KT 10SM CLR 28/24 A2985 RMK AO2 T02780241

Hora: 20:53 (08:53 UTC)

Pronòstic

L'informe es va fer fa 3 hores i 33 minuts, a les 05:20 UTC
Pronòstic vàlid del 19 a les 06 UTC al 20 a les 06 UTC
Vent 7 kt del Sud-Est
Visibilitat: 10 km
Núvols disperses a una alçada de 2200 ft
xàfecs en les proximitats

TAF: PKWA 190520Z 1906/2006 14007KT P6SM VCSH SCT022

Observacions i pronòstics meteorològics de més de 4000 aeroports (METAR i TAF).

Les estacions disponibles són els punts grocs i vermells al mapa.

Posi el ratolí al punt desitjat per veure el nom de l'estació.

Feu clic per veure les observacions i els pronòstics meteorològics.

Per canviar el mapa: feu clic els botons verds amb una creu de color negre per apropar; al botó verd amb un guió per allunyar la imatge; o en les fletxes verdes per a mapes adjacents.


METAR-TAF: